Time;durP1;ratioP1;P1;durP2;ratioP2;P2;SDS_P1;SDS_P2;PMS_P1;PMS_P2;Temp;Humidity;BMP_temperature;BMP_pressure;BME280_temperature;BME280_humidity;BME280_pressure;Samples;Min_cycle;Max_cycle;Signal;HPM_P1;HPM_P2
2022/07/27 00:01:08;;;;;;;3.37;1.20;;;;;;;;;;5038547;28;93898;-49
2022/07/27 00:03:37;;;;;;;2.30;1.30;;;;;;;;;;5039420;28;92090;-49
2022/07/27 00:06:05;;;;;;;5.10;1.60;;;;;;;;;;5038286;28;92096;-49
2022/07/27 00:08:33;;;;;;;4.83;2.20;;;;;;;;;;5038625;28;93182;-49
2022/07/27 00:11:01;;;;;;;5.13;2.23;;;;;;;;;;5038775;28;92974;-49
2022/07/27 00:13:30;;;;;;;5.53;2.40;;;;;;;;;;5038764;28;91996;-49
2022/07/27 00:15:58;;;;;;;8.10;3.20;;;;;;;;;;5038762;28;92124;-49
2022/07/27 00:18:28;;;;;;;10.30;4.70;;;;;;;;;;5037666;28;92913;-49
2022/07/27 00:20:57;;;;;;;13.17;5.03;;;;;;;;;;5038622;28;93885;-49
2022/07/27 00:23:25;;;;;;;11.57;5.13;;;;;;;;;;5039046;28;92035;-50
2022/07/27 00:25:53;;;;;;;10.63;4.97;;;;;;;;;;5037299;28;92131;-49
2022/07/27 00:28:21;;;;;;;12.03;5.03;;;;;;;;;;5038541;28;94153;-49
2022/07/27 00:30:50;;;;;;;14.13;4.90;;;;;;;;;;5037596;28;92808;-50
2022/07/27 00:33:18;;;;;;;12.40;5.17;;;;;;;;;;5038844;28;91765;-49
2022/07/27 00:35:48;;;;;;;14.43;5.10;;;;;;;;;;5038776;28;91284;-49
2022/07/27 00:38:16;;;;;;;17.77;5.67;;;;;;;;;;5038608;28;93281;-49
2022/07/27 00:40:44;;;;;;;11.60;4.13;;;;;;;;;;5037888;28;92978;-49
2022/07/27 00:43:14;;;;;;;13.60;5.23;;;;;;;;;;5038440;28;92900;-49
2022/07/27 00:45:42;;;;;;;9.40;4.40;;;;;;;;;;5038392;28;92096;-49
2022/07/27 00:48:10;;;;;;;13.53;4.87;;;;;;;;;;5037685;28;93174;-49
2022/07/27 00:50:39;;;;;;;10.93;4.73;;;;;;;;;;5038035;28;93842;-49
2022/07/27 00:53:09;;;;;;;10.70;4.40;;;;;;;;;;5040137;27;92123;-49
2022/07/27 00:55:38;;;;;;;11.23;4.07;;;;;;;;;;5041464;28;92123;-49
2022/07/27 00:58:07;;;;;;;9.50;3.60;;;;;;;;;;5041217;28;94131;-49
2022/07/27 01:00:36;;;;;;;9.90;4.23;;;;;;;;;;5041437;28;94013;-49
2022/07/27 01:03:04;;;;;;;9.30;3.80;;;;;;;;;;5041568;28;92090;-49
2022/07/27 01:05:37;;;;;;;8.90;4.10;;;;;;;;;;5042181;28;92122;-49
2022/07/27 01:08:13;;;;;;;7.10;3.17;;;;;;;;;;5041556;28;95096;-49
2022/07/27 01:10:42;;;;;;;13.57;3.87;;;;;;;;;;5041177;28;94728;-49
2022/07/27 01:13:10;;;;;;;10.23;3.93;;;;;;;;;;5041132;28;92067;-49
2022/07/27 01:15:40;;;;;;;11.00;3.63;;;;;;;;;;5041410;28;92164;-49
2022/07/27 01:18:10;;;;;;;10.07;3.10;;;;;;;;;;5040878;28;91982;-49
2022/07/27 01:20:40;;;;;;;7.80;3.27;;;;;;;;;;5041913;28;92805;-49
2022/07/27 01:23:09;;;;;;;5.83;3.13;;;;;;;;;;5041561;28;92019;-49
2022/07/27 01:25:38;;;;;;;7.67;2.43;;;;;;;;;;5041976;28;91175;-49
2022/07/27 01:28:06;;;;;;;4.90;2.73;;;;;;;;;;5040839;28;93154;-49
2022/07/27 01:30:35;;;;;;;4.77;2.80;;;;;;;;;;5040938;28;92759;-49
2022/07/27 01:33:03;;;;;;;6.53;3.33;;;;;;;;;;5041043;28;92959;-49
2022/07/27 01:35:31;;;;;;;5.53;2.67;;;;;;;;;;5041425;28;92068;-50
2022/07/27 01:38:00;;;;;;;7.97;2.50;;;;;;;;;;5040687;28;93316;-49
2022/07/27 01:40:29;;;;;;;6.57;3.67;;;;;;;;;;5040222;28;92728;-48
2022/07/27 01:42:58;;;;;;;5.70;2.53;;;;;;;;;;5041764;28;92091;-48
2022/07/27 01:45:26;;;;;;;5.57;2.87;;;;;;;;;;5040686;28;92026;-49
2022/07/27 01:47:54;;;;;;;4.13;2.40;;;;;;;;;;5040959;28;94151;-49
2022/07/27 01:50:23;;;;;;;6.60;2.50;;;;;;;;;;5041390;28;92806;-49
2022/07/27 01:52:51;;;;;;;4.10;2.23;;;;;;;;;;5041754;28;91790;-49
2022/07/27 01:55:19;;;;;;;4.30;2.00;;;;;;;;;;5041094;28;92133;-48
2022/07/27 01:57:49;;;;;;;4.73;1.70;;;;;;;;;;5040533;28;94275;-49
2022/07/27 02:00:17;;;;;;;4.20;1.83;;;;;;;;;;5040768;28;94855;-50
2022/07/27 02:02:46;;;;;;;3.60;1.57;;;;;;;;;;5040709;28;92110;-49
2022/07/27 02:05:14;;;;;;;2.97;1.70;;;;;;;;;;5040199;27;92014;-49
2022/07/27 02:07:42;;;;;;;2.60;1.50;;;;;;;;;;5040731;28;94281;-49
2022/07/27 02:10:11;;;;;;;5.17;2.20;;;;;;;;;;5040411;28;92886;-49
2022/07/27 02:12:38;;;;;;;3.20;1.73;;;;;;;;;;5040430;28;92152;-50
2022/07/27 02:15:09;;;;;;;2.80;1.70;;;;;;;;;;5041218;28;91143;-50
2022/07/27 02:17:42;;;;;;;2.93;1.43;;;;;;;;;;5040218;28;93124;-49
2022/07/27 02:20:12;;;;;;;3.00;1.30;;;;;;;;;;5040708;28;92609;-49
2022/07/27 02:22:40;;;;;;;3.53;1.40;;;;;;;;;;5040033;28;92979;-49
2022/07/27 02:25:09;;;;;;;2.50;1.20;;;;;;;;;;5040987;28;91983;-49
2022/07/27 02:27:37;;;;;;;3.13;1.33;;;;;;;;;;5039981;28;93262;-49
2022/07/27 02:30:06;;;;;;;3.60;1.43;;;;;;;;;;5040069;28;92869;-49
2022/07/27 02:32:36;;;;;;;3.70;1.40;;;;;;;;;;5040253;28;92069;-49
2022/07/27 02:35:05;;;;;;;1.77;1.30;;;;;;;;;;5040219;28;91948;-49
2022/07/27 02:37:47;;;;;;;3.23;1.77;;;;;;;;;;5040074;28;92094;-49
2022/07/27 02:40:16;;;;;;;2.57;1.57;;;;;;;;;;5040464;28;93915;-49
2022/07/27 02:42:45;;;;;;;2.67;1.43;;;;;;;;;;5040539;28;92051;-49
2022/07/27 02:45:13;;;;;;;2.37;1.57;;;;;;;;;;5040458;28;92093;-49
2022/07/27 02:47:43;;;;;;;2.77;1.70;;;;;;;;;;5039767;28;95187;-49
2022/07/27 02:50:11;;;;;;;3.47;2.23;;;;;;;;;;5039470;28;93737;-49
2022/07/27 02:52:40;;;;;;;6.40;2.17;;;;;;;;;;5039636;28;92082;-50
2022/07/27 02:55:08;;;;;;;3.20;2.00;;;;;;;;;;5040255;28;92037;-49
2022/07/27 02:57:39;;;;;;;2.93;2.50;;;;;;;;;;5039970;28;94384;-49
2022/07/27 03:00:10;;;;;;;5.53;3.00;;;;;;;;;;5039203;28;92868;-49
2022/07/27 03:02:38;;;;;;;4.83;3.00;;;;;;;;;;5038986;28;92064;-49
2022/07/27 03:05:08;;;;;;;6.90;3.53;;;;;;;;;;5040377;28;91293;-49
2022/07/27 03:07:37;;;;;;;6.03;3.07;;;;;;;;;;5039452;28;93071;-49
2022/07/27 03:10:05;;;;;;;5.03;3.20;;;;;;;;;;5038981;28;92799;-49
2022/07/27 03:12:34;;;;;;;7.80;4.63;;;;;;;;;;5038763;28;93051;-49
2022/07/27 03:15:02;;;;;;;6.80;4.57;;;;;;;;;;5039290;27;92101;-49
2022/07/27 03:17:31;;;;;;;7.30;5.13;;;;;;;;;;5038987;28;94317;-49
2022/07/27 03:20:00;;;;;;;6.77;5.37;;;;;;;;;;5039308;28;93794;-50
2022/07/27 03:22:31;;;;;;;10.03;6.40;;;;;;;;;;5039585;28;91898;-49
2022/07/27 03:25:00;;;;;;;10.67;6.57;;;;;;;;;;5039603;28;91991;-49
2022/07/27 03:27:28;;;;;;;10.23;6.67;;;;;;;;;;5039555;28;93358;-49
2022/07/27 03:29:57;;;;;;;12.63;7.43;;;;;;;;;;5039858;28;93971;-49
2022/07/27 03:32:25;;;;;;;12.40;7.83;;;;;;;;;;5038261;28;92067;-49
2022/07/27 03:34:53;;;;;;;11.57;7.33;;;;;;;;;;5039790;28;92073;-49
2022/07/27 03:37:22;;;;;;;12.77;8.67;;;;;;;;;;5038614;28;94117;-49
2022/07/27 03:39:51;;;;;;;12.73;8.60;;;;;;;;;;5039075;28;93735;-49
2022/07/27 03:42:20;;;;;;;13.03;8.30;;;;;;;;;;5039739;28;92132;-49
2022/07/27 03:44:48;;;;;;;12.17;8.90;;;;;;;;;;5039277;28;92047;-49
2022/07/27 03:47:16;;;;;;;12.40;9.43;;;;;;;;;;5038681;28;94227;-49
2022/07/27 03:49:44;;;;;;;12.80;9.13;;;;;;;;;;5039143;28;93021;-49
2022/07/27 03:52:13;;;;;;;16.00;10.00;;;;;;;;;;5039528;28;92016;-49
2022/07/27 03:54:45;;;;;;;13.33;9.30;;;;;;;;;;5039238;28;91313;-49
2022/07/27 03:57:14;;;;;;;12.07;9.20;;;;;;;;;;5038973;28;93157;-49
2022/07/27 03:59:43;;;;;;;12.97;9.20;;;;;;;;;;5039094;28;93965;-49
2022/07/27 04:02:11;;;;;;;13.80;10.07;;;;;;;;;;5038214;28;93691;-49
2022/07/27 04:04:39;;;;;;;17.10;9.90;;;;;;;;;;5038384;28;92076;-49
2022/07/27 04:07:08;;;;;;;17.43;10.77;;;;;;;;;;5038656;28;93000;-49
2022/07/27 04:09:36;;;;;;;13.93;10.50;;;;;;;;;;5038310;28;92837;-49
2022/07/27 04:12:06;;;;;;;14.03;10.10;;;;;;;;;;5038220;28;91937;-49
2022/07/27 04:14:36;;;;;;;16.10;10.83;;;;;;;;;;5038414;28;92000;-49
2022/07/27 04:17:04;;;;;;;13.30;9.33;;;;;;;;;;5038163;28;94221;-49
2022/07/27 04:19:33;;;;;;;11.20;8.47;;;;;;;;;;5039179;28;92885;-49
2022/07/27 04:22:02;;;;;;;14.97;9.57;;;;;;;;;;5039020;28;91951;-49
2022/07/27 04:24:30;;;;;;;11.17;9.50;;;;;;;;;;5037442;28;92152;-49
2022/07/27 04:26:58;;;;;;;13.33;8.43;;;;;;;;;;5038012;28;94200;-49
2022/07/27 04:29:27;;;;;;;14.73;9.63;;;;;;;;;;5041163;28;95057;-49
2022/07/27 04:31:56;;;;;;;14.33;8.53;;;;;;;;;;5042705;28;92060;-49
2022/07/27 04:34:24;;;;;;;11.37;9.07;;;;;;;;;;5042508;28;92119;-49
2022/07/27 04:36:53;;;;;;;12.87;8.40;;;;;;;;;;5042194;28;94153;-50
2022/07/27 04:39:21;;;;;;;12.40;8.87;;;;;;;;;;5040824;28;92873;-49
2022/07/27 04:41:50;;;;;;;10.63;8.53;;;;;;;;;;5040752;28;91994;-49
2022/07/27 04:44:18;;;;;;;10.30;7.70;;;;;;;;;;5040468;28;91378;-49
2022/07/27 04:46:47;;;;;;;11.30;8.53;;;;;;;;;;5040843;28;93343;-51
2022/07/27 04:49:16;;;;;;;12.97;8.37;;;;;;;;;;5041256;28;93361;-50
2022/07/27 04:51:45;;;;;;;11.80;8.00;;;;;;;;;;5041432;28;92796;-51
2022/07/27 04:54:13;;;;;;;11.57;8.67;;;;;;;;;;5041371;28;91868;-50
2022/07/27 04:56:41;;;;;;;9.43;7.13;;;;;;;;;;5041227;28;93368;-48
2022/07/27 04:59:10;;;;;;;9.07;7.53;;;;;;;;;;5041671;28;92834;-48
2022/07/27 05:01:38;;;;;;;14.77;7.60;;;;;;;;;;5041838;28;91998;-48
2022/07/27 05:04:07;;;;;;;10.37;7.73;;;;;;;;;;5041627;28;92057;-49
2022/07/27 05:06:37;;;;;;;10.80;7.30;;;;;;;;;;5041800;28;92041;-49
2022/07/27 05:09:05;;;;;;;9.93;7.63;;;;;;;;;;5041790;28;93895;-49
2022/07/27 05:11:33;;;;;;;10.27;7.10;;;;;;;;;;5042287;28;91985;-49
2022/07/27 05:14:02;;;;;;;8.07;6.53;;;;;;;;;;5041063;28;91970;-49
2022/07/27 05:16:31;;;;;;;10.17;7.27;;;;;;;;;;5040715;28;94146;-49
2022/07/27 05:18:59;;;;;;;8.07;6.60;;;;;;;;;;5041568;28;94835;-48
2022/07/27 05:21:28;;;;;;;8.80;6.33;;;;;;;;;;5041541;28;92070;-48
2022/07/27 05:23:58;;;;;;;14.60;5.97;;;;;;;;;;5041789;28;92022;-48
2022/07/27 05:26:26;;;;;;;8.47;6.23;;;;;;;;;;5040827;28;93198;-48
2022/07/27 05:28:55;;;;;;;6.00;5.03;;;;;;;;;;5041486;28;92835;-48
2022/07/27 05:31:23;;;;;;;8.83;6.20;;;;;;;;;;5041456;28;92080;-48
2022/07/27 05:33:52;;;;;;;8.27;5.60;;;;;;;;;;5042144;28;91335;-49
2022/07/27 05:36:25;;;;;;;10.00;5.47;;;;;;;;;;5040747;28;94094;-49
2022/07/27 05:38:54;;;;;;;8.30;5.43;;;;;;;;;;5040859;27;92953;-49
2022/07/27 05:41:24;;;;;;;7.50;4.00;;;;;;;;;;5040913;28;92696;-49
2022/07/27 05:43:53;;;;;;;5.73;4.50;;;;;;;;;;5041027;28;92005;-50
2022/07/27 05:46:21;;;;;;;7.63;3.97;;;;;;;;;;5040793;28;94252;-49
2022/07/27 05:48:50;;;;;;;5.07;4.30;;;;;;;;;;5040761;28;92540;-48
2022/07/27 05:51:18;;;;;;;5.17;3.77;;;;;;;;;;5040646;28;92125;-49
2022/07/27 05:53:46;;;;;;;5.07;3.90;;;;;;;;;;5040750;28;92016;-49
2022/07/27 05:56:15;;;;;;;5.40;3.63;;;;;;;;;;5040887;28;92942;-49
2022/07/27 05:58:44;;;;;;;4.63;3.67;;;;;;;;;;5041069;28;91672;-49
2022/07/27 06:01:12;;;;;;;4.07;3.23;;;;;;;;;;5040856;28;92456;-49
2022/07/27 06:03:41;;;;;;;5.37;3.43;;;;;;;;;;5040370;28;92067;-49
2022/07/27 06:08:55;;;;;;;3.73;2.53;;;;;;;;;;5040263;28;93895;-49
2022/07/27 06:11:24;;;;;;;3.67;2.70;;;;;;;;;;5041095;28;91848;-49
2022/07/27 06:13:54;;;;;;;3.60;3.00;;;;;;;;;;5040352;28;92038;-49
2022/07/27 06:16:23;;;;;;;3.77;2.70;;;;;;;;;;5040632;28;93203;-49
2022/07/27 06:18:51;;;;;;;3.87;2.13;;;;;;;;;;5040549;28;94042;-49
2022/07/27 06:21:22;;;;;;;2.83;2.03;;;;;;;;;;5040584;28;92036;-49
2022/07/27 06:23:51;;;;;;;3.67;3.00;;;;;;;;;;5041216;28;91297;-49
2022/07/27 06:26:19;;;;;;;2.50;2.00;;;;;;;;;;5040048;28;94267;-48
2022/07/27 06:28:47;;;;;;;2.63;2.20;;;;;;;;;;5040313;28;93915;-48
2022/07/27 06:31:18;;;;;;;3.03;2.27;;;;;;;;;;5040250;28;94591;-49
2022/07/27 06:33:46;;;;;;;2.43;1.97;;;;;;;;;;5040470;28;91982;-49
2022/07/27 06:36:19;;;;;;;2.33;1.90;;;;;;;;;;5039502;28;94225;-49
2022/07/27 06:38:47;;;;;;;2.80;1.90;;;;;;;;;;5039668;28;92830;-49
2022/07/27 06:41:16;;;;;;;2.63;1.97;;;;;;;;;;5040631;28;92048;-49
2022/07/27 06:43:44;;;;;;;1.90;1.30;;;;;;;;;;5039773;28;92103;-49
2022/07/27 06:46:13;;;;;;;2.30;1.90;;;;;;;;;;5039696;28;94245;-50
2022/07/27 06:48:42;;;;;;;2.47;2.00;;;;;;;;;;5040318;28;92728;-48
2022/07/27 06:51:11;;;;;;;1.63;1.43;;;;;;;;;;5040416;28;92041;-50
2022/07/27 06:53:39;;;;;;;1.87;1.40;;;;;;;;;;5040013;28;92011;-50
2022/07/27 06:56:07;;;;;;;1.87;1.20;;;;;;;;;;5039124;28;94229;-49
2022/07/27 06:58:37;;;;;;;1.53;1.27;;;;;;;;;;5039912;28;93943;-49
2022/07/27 07:01:05;;;;;;;2.60;1.40;;;;;;;;;;5039709;28;92101;-49
2022/07/27 07:03:33;;;;;;;1.33;1.23;;;;;;;;;;5040068;28;91996;-49
2022/07/27 07:06:03;;;;;;;2.27;1.33;;;;;;;;;;5039372;28;94061;-50
2022/07/27 07:08:32;;;;;;;2.77;1.20;;;;;;;;;;5039655;28;93992;-49
2022/07/27 07:11:00;;;;;;;2.03;1.30;;;;;;;;;;5039745;28;92098;-49
2022/07/27 07:13:28;;;;;;;1.10;1.00;;;;;;;;;;5039758;28;91373;-49
2022/07/27 07:16:02;;;;;;;1.30;1.10;;;;;;;;;;5037958;28;93298;-49
2022/07/27 07:18:30;;;;;;;0.93;0.83;;;;;;;;;;5038925;28;93799;-49
2022/07/27 07:21:00;;;;;;;1.10;1.00;;;;;;;;;;5039251;28;92950;-49
2022/07/27 07:23:30;;;;;;;1.77;1.20;;;;;;;;;;5039312;28;91972;-49
2022/07/27 07:25:58;;;;;;;1.00;0.83;;;;;;;;;;5038818;28;93169;-49
2022/07/27 07:28:26;;;;;;;3.53;1.10;;;;;;;;;;5038876;28;92784;-49
2022/07/27 07:30:55;;;;;;;1.10;0.80;;;;;;;;;;5039116;28;92093;-49
2022/07/27 07:33:23;;;;;;;1.67;1.20;;;;;;;;;;5039224;28;92050;-50
2022/07/27 07:35:51;;;;;;;1.20;1.10;;;;;;;;;;5038505;28;93379;-49
2022/07/27 07:38:41;;;;;;;0.80;0.80;;;;;;;;;;5039655;28;92354;-49
2022/07/27 07:41:09;;;;;;;0.90;0.80;;;;;;;;;;5039707;28;91883;-48
2022/07/27 07:43:38;;;;;;;1.43;1.00;;;;;;;;;;5038886;28;92050;-50
2022/07/27 07:46:07;;;;;;;2.23;0.80;;;;;;;;;;5038194;28;94118;-48
2022/07/27 07:48:38;;;;;;;1.53;1.20;;;;;;;;;;5038675;28;94825;-48
2022/07/27 07:51:06;;;;;;;0.80;0.80;;;;;;;;;;5039309;28;91750;-49
2022/07/27 07:53:34;;;;;;;1.13;0.80;;;;;;;;;;5039204;28;91988;-48
2022/07/27 07:56:10;;;;;;;0.70;0.70;;;;;;;;;;5038487;28;93102;-47
2022/07/27 07:58:38;;;;;;;1.07;1.00;;;;;;;;;;5038746;28;92802;-48
2022/07/27 08:01:06;;;;;;;0.40;0.40;;;;;;;;;;5038814;27;91788;-50
2022/07/27 08:03:35;;;;;;;1.40;0.70;;;;;;;;;;5038607;28;91321;-49
2022/07/27 08:06:03;;;;;;;1.07;0.70;;;;;;;;;;5038389;28;93223;-48
2022/07/27 08:08:32;;;;;;;0.67;0.67;;;;;;;;;;5038414;28;93871;-49
2022/07/27 08:11:00;;;;;;;0.67;0.60;;;;;;;;;;5038334;28;92872;-48
2022/07/27 08:13:30;;;;;;;2.47;0.80;;;;;;;;;;5037897;28;91993;-49
2022/07/27 08:15:58;;;;;;;2.70;0.63;;;;;;;;;;5038537;28;94139;-49
2022/07/27 08:18:26;;;;;;;1.30;0.80;;;;;;;;;;5038539;28;92768;-48
2022/07/27 08:20:55;;;;;;;1.83;0.53;;;;;;;;;;5038845;28;92045;-50
2022/07/27 08:23:23;;;;;;;0.90;0.60;;;;;;;;;;5037679;28;92120;-49
2022/07/27 08:25:51;;;;;;;0.37;0.37;;;;;;;;;;5037662;28;92246;-50
2022/07/27 08:28:19;;;;;;;0.83;0.70;;;;;;;;;;5038600;28;92747;-50
2022/07/27 08:30:49;;;;;;;1.03;0.73;;;;;;;;;;5038319;28;92027;-48
2022/07/27 08:33:18;;;;;;;1.00;0.70;;;;;;;;;;5038651;28;92083;-48
2022/07/27 08:35:46;;;;;;;1.87;0.90;;;;;;;;;;5036538;28;95317;-49
2022/07/27 08:38:14;;;;;;;0.70;0.70;;;;;;;;;;5038212;28;94973;-48
2022/07/27 08:40:43;;;;;;;0.63;0.53;;;;;;;;;;5038441;28;91928;-50
2022/07/27 08:43:15;;;;;;;0.50;0.50;;;;;;;;;;5038310;28;91965;-50
2022/07/27 08:45:57;;;;;;;1.43;0.40;;;;;;;;;;5037957;28;93112;-49
2022/07/27 08:48:25;;;;;;;0.83;0.50;;;;;;;;;;5038123;28;93174;-50
2022/07/27 08:50:53;;;;;;;1.43;0.60;;;;;;;;;;5038462;28;91763;-49
2022/07/27 08:53:22;;;;;;;1.53;0.60;;;;;;;;;;5038917;28;91316;-48
2022/07/27 08:55:50;;;;;;;0.60;0.47;;;;;;;;;;5037097;28;93142;-50
2022/07/27 08:58:18;;;;;;;0.40;0.40;;;;;;;;;;5037753;28;92850;-49
2022/07/27 09:00:48;;;;;;;0.87;0.50;;;;;;;;;;5037093;28;92982;-50
2022/07/27 09:03:18;;;;;;;0.60;0.60;;;;;;;;;;5038304;28;92118;-49
2022/07/27 09:05:48;;;;;;;1.40;0.40;;;;;;;;;;5036891;28;92900;-49
2022/07/27 09:08:20;;;;;;;0.40;0.40;;;;;;;;;;5037653;28;92861;-49
2022/07/27 09:10:48;;;;;;;1.20;0.73;;;;;;;;;;5038059;28;91944;-49
2022/07/27 09:13:17;;;;;;;0.67;0.60;;;;;;;;;;5037599;27;92113;-49
2022/07/27 09:15:45;;;;;;;1.83;0.80;;;;;;;;;;5040731;28;93302;-48
2022/07/27 09:18:36;;;;;;;1.97;0.77;;;;;;;;;;5041820;28;91304;-49
2022/07/27 09:21:08;;;;;;;2.97;0.80;;;;;;;;;;5041520;28;92036;-50
2022/07/27 09:23:36;;;;;;;1.80;1.10;;;;;;;;;;5040863;28;92197;-49
2022/07/27 09:26:14;;;;;;;1.60;0.60;;;;;;;;;;5040107;28;94268;-48
2022/07/27 09:28:58;;;;;;;1.07;0.80;;;;;;;;;;5041247;28;94820;-49
2022/07/27 09:31:27;;;;;;;1.13;0.73;;;;;;;;;;5041599;28;91971;-49
2022/07/27 09:33:57;;;;;;;1.17;0.67;;;;;;;;;;5041392;28;92110;-49
2022/07/27 09:36:26;;;;;;;1.23;0.87;;;;;;;;;;5040531;28;93172;-49
2022/07/27 09:38:55;;;;;;;3.13;0.67;;;;;;;;;;5040461;28;93857;-50
2022/07/27 09:41:38;;;;;;;1.03;0.50;;;;;;;;;;5041106;28;92038;-49
2022/07/27 09:44:07;;;;;;;1.27;1.03;;;;;;;;;;5041587;28;91338;-48
2022/07/27 09:46:55;;;;;;;1.20;0.90;;;;;;;;;;5040598;28;92750;-49
2022/07/27 09:49:29;;;;;;;1.40;0.90;;;;;;;;;;5040661;28;92796;-49
2022/07/27 09:51:57;;;;;;;1.87;0.73;;;;;;;;;;5040663;28;92982;-49
2022/07/27 09:54:28;;;;;;;1.27;0.80;;;;;;;;;;5040730;28;92064;-50
2022/07/27 09:57:00;;;;;;;0.83;0.50;;;;;;;;;;5040296;28;94150;-48
2022/07/27 09:59:29;;;;;;;1.77;1.00;;;;;;;;;;5040374;28;92801;-50
2022/07/27 10:01:57;;;;;;;2.67;0.67;;;;;;;;;;5040399;28;93086;-49
2022/07/27 10:04:26;;;;;;;3.17;0.63;;;;;;;;;;5041001;28;92190;-49
2022/07/27 10:06:55;;;;;;;1.33;0.77;;;;;;;;;;5040336;28;94209;-49
2022/07/27 10:09:38;;;;;;;1.80;0.70;;;;;;;;;;5040319;28;93840;-49
2022/07/27 10:12:06;;;;;;;0.57;0.57;;;;;;;;;;5040393;28;91823;-49
2022/07/27 10:14:35;;;;;;;0.63;0.40;;;;;;;;;;5039754;28;92129;-49
2022/07/27 10:17:03;;;;;;;2.30;0.80;;;;;;;;;;5038689;28;95041;-49
2022/07/27 10:19:32;;;;;;;1.20;0.60;;;;;;;;;;5039107;28;93888;-48
2022/07/27 10:22:02;;;;;;;0.87;0.43;;;;;;;;;;5039244;28;92045;-50
2022/07/27 10:24:32;;;;;;;0.90;0.53;;;;;;;;;;5038759;27;92104;-49
2022/07/27 10:27:01;;;;;;;1.03;0.60;;;;;;;;;;5037871;28;93099;-48
2022/07/27 10:29:30;;;;;;;0.97;0.60;;;;;;;;;;5038709;28;93954;-50
2022/07/27 10:31:59;;;;;;;0.70;0.63;;;;;;;;;;5038547;28;92067;-49
2022/07/27 10:34:34;;;;;;;0.30;0.23;;;;;;;;;;5038706;28;91261;-49
2022/07/27 10:37:09;;;;;;;0.70;0.40;;;;;;;;;;5038731;28;93609;-49
2022/07/27 10:39:38;;;;;;;0.47;0.40;;;;;;;;;;5038876;28;93852;-50
2022/07/27 10:42:26;;;;;;;1.73;0.60;;;;;;;;;;5038663;28;92957;-48
2022/07/27 10:44:55;;;;;;;1.30;0.50;;;;;;;;;;5038525;28;92056;-49
2022/07/27 10:47:33;;;;;;;0.50;0.50;;;;;;;;;;5038468;28;91958;-49
2022/07/27 10:50:21;;;;;;;0.60;0.40;;;;;;;;;;5038185;28;92992;-48
2022/07/27 10:52:51;;;;;;;1.27;0.53;;;;;;;;;;5038306;28;92037;-50
2022/07/27 10:55:37;;;;;;;2.63;0.77;;;;;;;;;;5038224;28;92068;-47
2022/07/27 10:58:38;;;;;;;0.60;0.50;;;;;;;;;;5037549;28;95004;-48
2022/07/27 11:01:07;;;;;;;2.13;0.70;;;;;;;;;;5037653;28;92977;-49
2022/07/27 11:03:39;;;;;;;1.23;0.87;;;;;;;;;;5038763;28;91953;-49
2022/07/27 11:06:11;;;;;;;0.83;0.63;;;;;;;;;;5038321;28;92116;-50
2022/07/27 11:09:01;;;;;;;3.80;1.00;;;;;;;;;;5037420;28;93670;-50
2022/07/27 11:11:49;;;;;;;2.37;1.23;;;;;;;;;;5037870;28;93257;-49
2022/07/27 11:14:18;;;;;;;8.53;1.77;;;;;;;;;;4991653;28;1323597;-49
2022/07/27 11:16:59;;;;;;;3.30;1.00;;;;;;;;;;5039223;28;92090;-49
2022/07/27 11:19:52;;;;;;;3.40;1.10;;;;;;;;;;5038903;28;92860;-50
2022/07/27 11:22:29;;;;;;;4.77;1.20;;;;;;;;;;5038821;28;92772;-49
2022/07/27 11:25:18;;;;;;;2.80;1.43;;;;;;;;;;5039225;28;91960;-49
2022/07/27 11:27:47;;;;;;;1.63;1.30;;;;;;;;;;5039730;28;91345;-49
2022/07/27 11:30:22;;;;;;;2.30;1.30;;;;;;;;;;5038888;28;93428;-49
2022/07/27 11:32:51;;;;;;;5.00;1.30;;;;;;;;;;5038955;28;92721;-49
2022/07/27 11:35:19;;;;;;;2.63;1.60;;;;;;;;;;5039064;28;93247;-49
2022/07/27 11:37:57;;;;;;;3.20;1.23;;;;;;;;;;5039010;28;92067;-48
2022/07/27 11:40:27;;;;;;;2.97;1.13;;;;;;;;;;5039267;28;93313;-48
2022/07/27 11:43:30;;;;;;;4.00;1.87;;;;;;;;;;5039114;28;92486;-48
2022/07/27 11:46:11;;;;;;;5.37;1.97;;;;;;;;;;5038858;28;92106;-49
2022/07/27 11:48:40;;;;;;;6.27;1.53;;;;;;;;;;5038673;28;92509;-48
2022/07/27 11:51:28;;;;;;;3.30;2.37;;;;;;;;;;5038798;28;92734;-50
2022/07/27 11:53:57;;;;;;;4.17;1.90;;;;;;;;;;5039244;28;92901;-49
2022/07/27 11:56:27;;;;;;;6.63;2.00;;;;;;;;;;5038806;28;92056;-50
2022/07/27 11:59:00;;;;;;;3.60;1.30;;;;;;;;;;5039334;28;92074;-49
2022/07/27 12:01:29;;;;;;;2.93;1.90;;;;;;;;;;5037923;28;93813;-49
2022/07/27 12:04:04;;;;;;;3.67;1.70;;;;;;;;;;5038827;28;92389;-49
2022/07/27 12:06:33;;;;;;;6.97;2.23;;;;;;;;;;5039342;28;92911;-49
2022/07/27 12:09:02;;;;;;;3.57;1.70;;;;;;;;;;5038929;28;92045;-49
2022/07/27 12:11:32;;;;;;;4.30;2.07;;;;;;;;;;5038340;28;93496;-49
2022/07/27 12:14:11;;;;;;;3.27;2.00;;;;;;;;;;5037100;28;92664;-49
2022/07/27 12:16:39;;;;;;;4.00;1.87;;;;;;;;;;5039611;28;91946;-50
2022/07/27 12:19:08;;;;;;;4.27;1.80;;;;;;;;;;5039326;28;91294;-49
2022/07/27 12:21:36;;;;;;;3.70;1.70;;;;;;;;;;5038652;28;93090;-49
2022/07/27 12:24:05;;;;;;;4.07;1.73;;;;;;;;;;5038216;28;92788;-49
2022/07/27 12:26:36;;;;;;;2.57;1.60;;;;;;;;;;5038841;28;93168;-50
2022/07/27 12:29:08;;;;;;;3.23;1.80;;;;;;;;;;5038150;28;92004;-49
2022/07/27 12:31:36;;;;;;;4.03;1.37;;;;;;;;;;5037640;28;93041;-49
2022/07/27 12:34:05;;;;;;;3.43;1.50;;;;;;;;;;5038248;28;92871;-48
2022/07/27 12:36:34;;;;;;;3.63;1.50;;;;;;;;;;5038986;28;91899;-49
2022/07/27 12:39:02;;;;;;;2.33;1.50;;;;;;;;;;5038698;28;92020;-49
2022/07/27 12:41:35;;;;;;;1.27;1.10;;;;;;;;;;5038141;28;92163;-49
2022/07/27 12:44:08;;;;;;;3.53;1.20;;;;;;;;;;5038367;28;92794;-49
2022/07/27 12:46:51;;;;;;;2.27;1.50;;;;;;;;;;5038639;28;91946;-49
2022/07/27 12:49:23;;;;;;;3.00;1.13;;;;;;;;;;5040554;27;92156;-49
2022/07/27 12:51:52;;;;;;;1.93;1.20;;;;;;;;;;5041083;28;94322;-49
2022/07/27 12:54:20;;;;;;;1.07;0.90;;;;;;;;;;5041433;28;94935;-49
2022/07/27 12:56:49;;;;;;;2.27;1.17;;;;;;;;;;5041620;28;92015;-49
2022/07/27 12:59:18;;;;;;;1.87;1.20;;;;;;;;;;5041524;28;92187;-50
2022/07/27 13:01:47;;;;;;;2.83;1.17;;;;;;;;;;5041463;28;95950;-48
2022/07/27 13:04:15;;;;;;;2.97;0.80;;;;;;;;;;5041761;28;92579;-49
2022/07/27 13:06:43;;;;;;;0.70;0.67;;;;;;;;;;5042265;28;91900;-48
2022/07/27 13:09:12;;;;;;;2.20;1.00;;;;;;;;;;5041879;28;91187;-49
2022/07/27 13:11:41;;;;;;;1.87;0.97;;;;;;;;;;5040911;28;94180;-50
2022/07/27 13:14:15;;;;;;;1.20;0.80;;;;;;;;;;5040708;28;92954;-48
2022/07/27 13:16:44;;;;;;;1.20;0.73;;;;;;;;;;5041106;28;93036;-49
2022/07/27 13:19:13;;;;;;;1.67;0.90;;;;;;;;;;5041064;28;91976;-49
2022/07/27 13:21:43;;;;;;;1.57;0.70;;;;;;;;;;5041429;28;93117;-48
2022/07/27 13:24:11;;;;;;;1.37;0.93;;;;;;;;;;5041440;28;93103;-49
2022/07/27 13:26:40;;;;;;;2.03;1.03;;;;;;;;;;5041625;28;91750;-49
2022/07/27 13:29:08;;;;;;;1.63;0.70;;;;;;;;;;5041770;28;91946;-50
2022/07/27 13:31:37;;;;;;;1.10;0.80;;;;;;;;;;5040995;28;93411;-49
2022/07/27 13:34:07;;;;;;;0.80;0.53;;;;;;;;;;5041196;28;92816;-49
2022/07/27 13:36:39;;;;;;;3.17;0.70;;;;;;;;;;5041282;28;92031;-49
2022/07/27 13:39:07;;;;;;;1.37;0.50;;;;;;;;;;5041177;28;92098;-48
2022/07/27 13:41:36;;;;;;;1.00;0.70;;;;;;;;;;5040493;28;95150;-48
2022/07/27 13:44:04;;;;;;;1.63;0.53;;;;;;;;;;5041367;28;93499;-49
2022/07/27 13:46:33;;;;;;;1.20;0.60;;;;;;;;;;5041123;28;92062;-50
2022/07/27 13:49:01;;;;;;;0.70;0.70;;;;;;;;;;5040567;28;92168;-50
2022/07/27 13:51:31;;;;;;;0.83;0.57;;;;;;;;;;5040431;28;93084;-49
2022/07/27 13:53:59;;;;;;;1.57;0.73;;;;;;;;;;5040885;28;93004;-50
2022/07/27 13:56:30;;;;;;;0.50;0.50;;;;;;;;;;5041216;28;92074;-48
2022/07/27 13:58:59;;;;;;;0.77;0.50;;;;;;;;;;5041594;27;91232;-50
2022/07/27 14:01:27;;;;;;;1.97;0.70;;;;;;;;;;5038876;28;93320;-49
2022/07/27 14:03:55;;;;;;;1.57;0.67;;;;;;;;;;5040480;28;93874;-49
2022/07/27 14:06:24;;;;;;;0.53;0.43;;;;;;;;;;5032343;28;93046;-48
2022/07/27 14:08:54;;;;;;;0.93;0.80;;;;;;;;;;5041153;28;92097;-49
2022/07/27 14:11:23;;;;;;;0.87;0.60;;;;;;;;;;5040742;28;93187;-49
2022/07/27 14:13:51;;;;;;;0.60;0.60;;;;;;;;;;5040294;28;94013;-49
2022/07/27 14:16:19;;;;;;;1.63;1.10;;;;;;;;;;5040952;28;91915;-49
2022/07/27 14:18:48;;;;;;;1.13;1.03;;;;;;;;;;5040836;28;92083;-49
2022/07/27 14:21:16;;;;;;;1.00;0.80;;;;;;;;;;5040798;28;93375;-49
2022/07/27 14:23:44;;;;;;;1.23;0.67;;;;;;;;;;5040638;28;94008;-49
2022/07/27 14:26:14;;;;;;;2.73;1.30;;;;;;;;;;5040668;28;92142;-51
2022/07/27 14:28:43;;;;;;;0.90;0.80;;;;;;;;;;5040522;28;92069;-49
2022/07/27 14:31:12;;;;;;;1.67;0.70;;;;;;;;;;5039407;28;93000;-50
2022/07/27 14:33:40;;;;;;;1.97;1.00;;;;;;;;;;5040489;28;94697;-48
2022/07/27 14:36:09;;;;;;;2.00;1.10;;;;;;;;;;5040593;28;92106;-48
2022/07/27 14:38:38;;;;;;;4.00;1.40;;;;;;;;;;5040679;28;92065;-50
2022/07/27 14:41:06;;;;;;;1.57;1.23;;;;;;;;;;5039774;28;93293;-49
2022/07/27 14:43:36;;;;;;;0.90;0.90;;;;;;;;;;5039904;28;92800;-49
2022/07/27 14:46:04;;;;;;;2.43;0.97;;;;;;;;;;5040248;28;91928;-49
2022/07/27 14:48:33;;;;;;;1.23;1.13;;;;;;;;;;5040501;28;92219;-49
2022/07/27 14:51:21;;;;;;;3.60;1.50;;;;;;;;;;5031146;28;92833;-49
2022/07/27 14:53:49;;;;;;;1.30;1.03;;;;;;;;;;5039841;28;92988;-50
2022/07/27 14:56:18;;;;;;;1.67;1.53;;;;;;;;;;5039775;28;92997;-50
2022/07/27 14:58:47;;;;;;;1.60;1.20;;;;;;;;;;5040110;28;91965;-49
2022/07/27 15:01:16;;;;;;;2.97;1.67;;;;;;;;;;5039467;28;93213;-49